sensor_id;sensor_type;location;lat;lon;timestamp;temperature;humidity
18948;DHT22;9607;51.600;7.558;2024-02-23T00:00:54;6.80;99.90
18948;DHT22;9607;51.600;7.558;2024-02-23T00:03:22;6.60;99.90
18948;DHT22;9607;51.600;7.558;2024-02-23T00:05:49;6.70;99.90
18948;DHT22;9607;51.600;7.558;2024-02-23T00:08:16;6.60;99.90
18948;DHT22;9607;51.600;7.558;2024-02-23T00:10:44;6.50;99.90
18948;DHT22;9607;51.600;7.558;2024-02-23T00:13:11;6.40;99.90
18948;DHT22;9607;51.600;7.558;2024-02-23T00:15:38;6.30;99.90
18948;DHT22;9607;51.600;7.558;2024-02-23T00:18:05;6.20;99.90
18948;DHT22;9607;51.600;7.558;2024-02-23T00:20:34;6.00;99.90
18948;DHT22;9607;51.600;7.558;2024-02-23T00:23:02;5.90;99.90
18948;DHT22;9607;51.600;7.558;2024-02-23T00:25:29;5.80;99.90
18948;DHT22;9607;51.600;7.558;2024-02-23T00:27:56;5.70;99.90
18948;DHT22;9607;51.600;7.558;2024-02-23T00:30:23;5.60;99.90
18948;DHT22;9607;51.600;7.558;2024-02-23T00:32:50;5.50;99.90
18948;DHT22;9607;51.600;7.558;2024-02-23T00:35:17;5.50;99.90
18948;DHT22;9607;51.600;7.558;2024-02-23T00:37:45;5.50;99.90
18948;DHT22;9607;51.600;7.558;2024-02-23T00:40:12;5.40;99.90
18948;DHT22;9607;51.600;7.558;2024-02-23T00:42:39;5.40;99.90
18948;DHT22;9607;51.600;7.558;2024-02-23T00:45:07;5.30;99.90
18948;DHT22;9607;51.600;7.558;2024-02-23T00:47:34;5.30;99.90
18948;DHT22;9607;51.600;7.558;2024-02-23T00:50:05;5.30;99.90
18948;DHT22;9607;51.600;7.558;2024-02-23T00:52:33;5.30;99.90
18948;DHT22;9607;51.600;7.558;2024-02-23T00:55:01;5.30;99.90
18948;DHT22;9607;51.600;7.558;2024-02-23T00:57:28;5.30;99.90
18948;DHT22;9607;51.600;7.558;2024-02-23T00:59:55;5.40;99.90
18948;DHT22;9607;51.600;7.558;2024-02-23T01:02:22;5.30;99.90
18948;DHT22;9607;51.600;7.558;2024-02-23T01:04:49;5.30;99.90
18948;DHT22;9607;51.600;7.558;2024-02-23T01:07:22;5.40;99.90
18948;DHT22;9607;51.600;7.558;2024-02-23T01:09:52;5.40;99.90
18948;DHT22;9607;51.600;7.558;2024-02-23T01:12:20;5.40;99.90
18948;DHT22;9607;51.600;7.558;2024-02-23T01:14:48;5.50;99.90
18948;DHT22;9607;51.600;7.558;2024-02-23T01:17:15;5.50;99.90
18948;DHT22;9607;51.600;7.558;2024-02-23T01:19:42;5.50;99.90
18948;DHT22;9607;51.600;7.558;2024-02-23T01:22:09;5.60;99.90
18948;DHT22;9607;51.600;7.558;2024-02-23T01:24:36;5.60;99.90
18948;DHT22;9607;51.600;7.558;2024-02-23T01:27:03;5.60;99.90
18948;DHT22;9607;51.600;7.558;2024-02-23T01:29:31;5.60;99.90
18948;DHT22;9607;51.600;7.558;2024-02-23T01:31:58;5.60;99.90
18948;DHT22;9607;51.600;7.558;2024-02-23T01:34:25;5.60;99.90
18948;DHT22;9607;51.600;7.558;2024-02-23T01:36:53;5.60;99.90
18948;DHT22;9607;51.600;7.558;2024-02-23T01:39:20;5.60;99.90
18948;DHT22;9607;51.600;7.558;2024-02-23T01:41:48;5.60;99.90
18948;DHT22;9607;51.600;7.558;2024-02-23T01:44:15;5.60;99.90
18948;DHT22;9607;51.600;7.558;2024-02-23T01:46:44;5.60;99.90
18948;DHT22;9607;51.600;7.558;2024-02-23T01:49:11;5.70;99.90
18948;DHT22;9607;51.600;7.558;2024-02-23T01:51:38;5.70;99.90
18948;DHT22;9607;51.600;7.558;2024-02-23T01:54:05;5.70;99.90
18948;DHT22;9607;51.600;7.558;2024-02-23T01:56:33;5.70;99.90
18948;DHT22;9607;51.600;7.558;2024-02-23T01:59:05;5.70;99.90
18948;DHT22;9607;51.600;7.558;2024-02-23T02:01:32;5.70;99.90
18948;DHT22;9607;51.600;7.558;2024-02-23T02:04:00;5.60;99.90
18948;DHT22;9607;51.600;7.558;2024-02-23T02:06:27;5.60;99.90
18948;DHT22;9607;51.600;7.558;2024-02-23T02:08:57;5.60;99.90
18948;DHT22;9607;51.600;7.558;2024-02-23T02:11:23;5.70;99.90
18948;DHT22;9607;51.600;7.558;2024-02-23T02:13:50;5.70;99.90
18948;DHT22;9607;51.600;7.558;2024-02-23T02:16:17;5.70;99.90
18948;DHT22;9607;51.600;7.558;2024-02-23T02:18:44;5.80;99.90
18948;DHT22;9607;51.600;7.558;2024-02-23T02:21:12;5.80;99.90
18948;DHT22;9607;51.600;7.558;2024-02-23T02:23:39;5.90;99.90
18948;DHT22;9607;51.600;7.558;2024-02-23T02:26:07;5.90;99.90
18948;DHT22;9607;51.600;7.558;2024-02-23T02:28:34;5.90;99.90
18948;DHT22;9607;51.600;7.558;2024-02-23T02:31:01;5.80;99.90
18948;DHT22;9607;51.600;7.558;2024-02-23T02:33:28;5.90;99.90
18948;DHT22;9607;51.600;7.558;2024-02-23T02:35:55;5.90;99.90
18948;DHT22;9607;51.600;7.558;2024-02-23T02:38:23;5.90;99.90
18948;DHT22;9607;51.600;7.558;2024-02-23T02:40:50;5.90;99.90
18948;DHT22;9607;51.600;7.558;2024-02-23T02:43:17;5.80;99.90
18948;DHT22;9607;51.600;7.558;2024-02-23T02:45:44;6.00;99.90
18948;DHT22;9607;51.600;7.558;2024-02-23T02:48:11;6.00;99.90
18948;DHT22;9607;51.600;7.558;2024-02-23T02:50:38;5.90;99.90
18948;DHT22;9607;51.600;7.558;2024-02-23T02:53:05;6.00;99.90
18948;DHT22;9607;51.600;7.558;2024-02-23T02:55:33;6.00;99.90
18948;DHT22;9607;51.600;7.558;2024-02-23T02:58:00;6.00;99.90
18948;DHT22;9607;51.600;7.558;2024-02-23T03:00:27;6.00;99.90
18948;DHT22;9607;51.600;7.558;2024-02-23T03:02:54;5.90;99.90
18948;DHT22;9607;51.600;7.558;2024-02-23T03:05:21;6.00;99.90
18948;DHT22;9607;51.600;7.558;2024-02-23T03:07:48;6.00;99.90
18948;DHT22;9607;51.600;7.558;2024-02-23T03:10:15;6.00;99.90
18948;DHT22;9607;51.600;7.558;2024-02-23T03:12:43;6.00;99.90
18948;DHT22;9607;51.600;7.558;2024-02-23T03:15:10;6.10;99.90
18948;DHT22;9607;51.600;7.558;2024-02-23T03:17:37;6.10;99.90
18948;DHT22;9607;51.600;7.558;2024-02-23T03:20:05;6.10;99.90
18948;DHT22;9607;51.600;7.558;2024-02-23T03:22:34;6.10;99.90
18948;DHT22;9607;51.600;7.558;2024-02-23T03:25:01;6.10;99.90
18948;DHT22;9607;51.600;7.558;2024-02-23T03:27:34;6.10;99.90
18948;DHT22;9607;51.600;7.558;2024-02-23T03:30:03;6.00;99.90
18948;DHT22;9607;51.600;7.558;2024-02-23T03:32:30;6.10;99.90
18948;DHT22;9607;51.600;7.558;2024-02-23T03:35:01;6.00;99.90
18948;DHT22;9607;51.600;7.558;2024-02-23T03:37:28;6.00;99.90
18948;DHT22;9607;51.600;7.558;2024-02-23T03:39:55;6.00;99.90
18948;DHT22;9607;51.600;7.558;2024-02-23T03:42:25;6.00;99.90
18948;DHT22;9607;51.600;7.558;2024-02-23T03:44:53;5.90;99.90
18948;DHT22;9607;51.600;7.558;2024-02-23T03:47:21;5.80;99.90
18948;DHT22;9607;51.600;7.558;2024-02-23T03:49:47;5.80;99.90
18948;DHT22;9607;51.600;7.558;2024-02-23T03:52:14;5.70;99.90
18948;DHT22;9607;51.600;7.558;2024-02-23T03:54:41;5.70;99.90
18948;DHT22;9607;51.600;7.558;2024-02-23T03:57:08;5.60;99.90
18948;DHT22;9607;51.600;7.558;2024-02-23T03:59:36;5.60;99.90
18948;DHT22;9607;51.600;7.558;2024-02-23T04:02:04;5.60;99.90
18948;DHT22;9607;51.600;7.558;2024-02-23T04:04:33;5.50;99.90
18948;DHT22;9607;51.600;7.558;2024-02-23T04:07:00;5.60;99.90
18948;DHT22;9607;51.600;7.558;2024-02-23T04:09:27;5.60;99.90
18948;DHT22;9607;51.600;7.558;2024-02-23T04:11:53;5.60;99.90
18948;DHT22;9607;51.600;7.558;2024-02-23T04:14:21;5.70;99.90
18948;DHT22;9607;51.600;7.558;2024-02-23T04:16:48;5.70;99.90
18948;DHT22;9607;51.600;7.558;2024-02-23T04:19:14;5.70;99.90
18948;DHT22;9607;51.600;7.558;2024-02-23T04:21:42;5.70;99.90
18948;DHT22;9607;51.600;7.558;2024-02-23T04:24:09;5.80;99.90
18948;DHT22;9607;51.600;7.558;2024-02-23T04:26:36;5.80;99.90
18948;DHT22;9607;51.600;7.558;2024-02-23T04:29:03;5.90;99.90
18948;DHT22;9607;51.600;7.558;2024-02-23T04:31:29;5.90;99.90
18948;DHT22;9607;51.600;7.558;2024-02-23T04:33:56;5.90;99.90
18948;DHT22;9607;51.600;7.558;2024-02-23T04:36:23;5.90;99.90
18948;DHT22;9607;51.600;7.558;2024-02-23T04:38:51;5.90;99.90
18948;DHT22;9607;51.600;7.558;2024-02-23T04:41:20;5.90;99.90
18948;DHT22;9607;51.600;7.558;2024-02-23T04:43:47;5.90;99.90
18948;DHT22;9607;51.600;7.558;2024-02-23T04:46:14;6.00;99.90
18948;DHT22;9607;51.600;7.558;2024-02-23T04:48:41;6.00;99.90
18948;DHT22;9607;51.600;7.558;2024-02-23T04:51:07;6.00;99.90
18948;DHT22;9607;51.600;7.558;2024-02-23T04:53:36;6.10;99.90
18948;DHT22;9607;51.600;7.558;2024-02-23T04:56:05;6.10;99.90
18948;DHT22;9607;51.600;7.558;2024-02-23T04:58:33;6.10;99.90
18948;DHT22;9607;51.600;7.558;2024-02-23T05:01:00;6.10;99.90
18948;DHT22;9607;51.600;7.558;2024-02-23T05:03:28;6.10;99.90
18948;DHT22;9607;51.600;7.558;2024-02-23T05:05:55;6.00;99.90
18948;DHT22;9607;51.600;7.558;2024-02-23T05:08:22;6.00;99.90
18948;DHT22;9607;51.600;7.558;2024-02-23T05:10:49;6.10;99.90
18948;DHT22;9607;51.600;7.558;2024-02-23T05:13:18;6.10;99.90
18948;DHT22;9607;51.600;7.558;2024-02-23T05:15:45;6.10;99.90
18948;DHT22;9607;51.600;7.558;2024-02-23T05:18:11;6.10;99.90
18948;DHT22;9607;51.600;7.558;2024-02-23T05:20:38;6.10;99.90
18948;DHT22;9607;51.600;7.558;2024-02-23T05:23:05;6.10;99.90
18948;DHT22;9607;51.600;7.558;2024-02-23T05:25:32;6.10;99.90
18948;DHT22;9607;51.600;7.558;2024-02-23T05:27:59;6.20;99.90
18948;DHT22;9607;51.600;7.558;2024-02-23T05:30:27;6.20;99.90
18948;DHT22;9607;51.600;7.558;2024-02-23T05:32:56;6.20;99.90
18948;DHT22;9607;51.600;7.558;2024-02-23T05:35:23;6.20;99.90
18948;DHT22;9607;51.600;7.558;2024-02-23T05:37:50;6.10;99.90
18948;DHT22;9607;51.600;7.558;2024-02-23T05:40:18;6.10;99.90
18948;DHT22;9607;51.600;7.558;2024-02-23T05:42:45;6.10;99.90
18948;DHT22;9607;51.600;7.558;2024-02-23T05:45:12;6.00;99.90
18948;DHT22;9607;51.600;7.558;2024-02-23T05:47:40;5.90;99.90
18948;DHT22;9607;51.600;7.558;2024-02-23T05:50:08;5.90;99.90
18948;DHT22;9607;51.600;7.558;2024-02-23T05:52:35;5.90;99.90
18948;DHT22;9607;51.600;7.558;2024-02-23T05:55:02;5.90;99.90
18948;DHT22;9607;51.600;7.558;2024-02-23T05:57:33;6.00;99.90
18948;DHT22;9607;51.600;7.558;2024-02-23T06:00:00;6.00;99.90
18948;DHT22;9607;51.600;7.558;2024-02-23T06:02:28;6.00;99.90
18948;DHT22;9607;51.600;7.558;2024-02-23T06:04:56;6.00;99.90
18948;DHT22;9607;51.600;7.558;2024-02-23T06:07:23;6.10;99.90
18948;DHT22;9607;51.600;7.558;2024-02-23T06:09:54;6.10;99.90
18948;DHT22;9607;51.600;7.558;2024-02-23T06:12:21;6.00;99.90
18948;DHT22;9607;51.600;7.558;2024-02-23T06:14:48;5.90;99.90
18948;DHT22;9607;51.600;7.558;2024-02-23T06:17:15;6.00;99.90
18948;DHT22;9607;51.600;7.558;2024-02-23T06:19:41;5.90;99.90
18948;DHT22;9607;51.600;7.558;2024-02-23T06:22:09;5.90;99.90
18948;DHT22;9607;51.600;7.558;2024-02-23T06:24:37;5.80;99.90
18948;DHT22;9607;51.600;7.558;2024-02-23T06:27:04;5.80;99.90
18948;DHT22;9607;51.600;7.558;2024-02-23T06:29:32;5.70;99.90
18948;DHT22;9607;51.600;7.558;2024-02-23T06:31:58;5.60;99.90
18948;DHT22;9607;51.600;7.558;2024-02-23T06:34:28;5.60;99.90
18948;DHT22;9607;51.600;7.558;2024-02-23T06:36:55;5.50;99.90
18948;DHT22;9607;51.600;7.558;2024-02-23T06:39:23;5.40;99.90
18948;DHT22;9607;51.600;7.558;2024-02-23T06:41:52;5.40;99.90
18948;DHT22;9607;51.600;7.558;2024-02-23T06:44:19;5.40;99.90
18948;DHT22;9607;51.600;7.558;2024-02-23T06:46:46;5.30;99.90
18948;DHT22;9607;51.600;7.558;2024-02-23T06:49:12;5.30;99.90
18948;DHT22;9607;51.600;7.558;2024-02-23T06:51:39;5.30;99.90
18948;DHT22;9607;51.600;7.558;2024-02-23T06:54:06;5.30;99.90
18948;DHT22;9607;51.600;7.558;2024-02-23T06:56:35;5.40;99.90
18948;DHT22;9607;51.600;7.558;2024-02-23T06:59:02;5.40;99.90
18948;DHT22;9607;51.600;7.558;2024-02-23T07:01:29;5.40;99.90
18948;DHT22;9607;51.600;7.558;2024-02-23T07:03:56;5.40;99.90
18948;DHT22;9607;51.600;7.558;2024-02-23T07:06:24;5.50;99.90
18948;DHT22;9607;51.600;7.558;2024-02-23T07:08:50;5.50;99.90
18948;DHT22;9607;51.600;7.558;2024-02-23T07:11:18;5.40;99.90
18948;DHT22;9607;51.600;7.558;2024-02-23T07:13:47;5.40;99.90
18948;DHT22;9607;51.600;7.558;2024-02-23T07:16:14;5.40;99.90
18948;DHT22;9607;51.600;7.558;2024-02-23T07:18:41;5.50;99.90
18948;DHT22;9607;51.600;7.558;2024-02-23T07:21:07;5.50;99.90
18948;DHT22;9607;51.600;7.558;2024-02-23T07:23:34;5.50;99.90
18948;DHT22;9607;51.600;7.558;2024-02-23T07:26:01;5.50;99.90
18948;DHT22;9607;51.600;7.558;2024-02-23T07:28:28;5.60;99.90
18948;DHT22;9607;51.600;7.558;2024-02-23T07:30:56;5.60;99.90
18948;DHT22;9607;51.600;7.558;2024-02-23T07:33:23;5.60;99.90
18948;DHT22;9607;51.600;7.558;2024-02-23T07:35:50;5.60;99.90
18948;DHT22;9607;51.600;7.558;2024-02-23T07:38:17;5.60;99.90
18948;DHT22;9607;51.600;7.558;2024-02-23T07:40:45;5.60;99.90
18948;DHT22;9607;51.600;7.558;2024-02-23T07:43:12;5.60;99.90
18948;DHT22;9607;51.600;7.558;2024-02-23T07:45:39;5.60;99.90
18948;DHT22;9607;51.600;7.558;2024-02-23T07:48:07;5.60;99.90
18948;DHT22;9607;51.600;7.558;2024-02-23T07:50:35;5.70;99.90
18948;DHT22;9607;51.600;7.558;2024-02-23T07:53:02;5.70;99.90
18948;DHT22;9607;51.600;7.558;2024-02-23T07:55:29;5.80;99.90
18948;DHT22;9607;51.600;7.558;2024-02-23T07:57:56;5.90;99.90
18948;DHT22;9607;51.600;7.558;2024-02-23T08:00:27;6.10;99.90
18948;DHT22;9607;51.600;7.558;2024-02-23T08:02:54;6.20;99.90
18948;DHT22;9607;51.600;7.558;2024-02-23T08:05:23;6.30;99.90
18948;DHT22;9607;51.600;7.558;2024-02-23T08:07:50;6.40;99.90
18948;DHT22;9607;51.600;7.558;2024-02-23T08:10:17;6.40;99.90
18948;DHT22;9607;51.600;7.558;2024-02-23T08:12:44;6.40;99.90
18948;DHT22;9607;51.600;7.558;2024-02-23T08:15:10;6.50;99.90
18948;DHT22;9607;51.600;7.558;2024-02-23T08:17:37;6.70;99.90
18948;DHT22;9607;51.600;7.558;2024-02-23T08:20:05;6.90;99.90
18948;DHT22;9607;51.600;7.558;2024-02-23T08:22:33;7.10;99.90
18948;DHT22;9607;51.600;7.558;2024-02-23T08:24:59;7.30;99.90
18948;DHT22;9607;51.600;7.558;2024-02-23T08:27:26;7.50;99.90
18948;DHT22;9607;51.600;7.558;2024-02-23T08:29:53;7.60;99.90
18948;DHT22;9607;51.600;7.558;2024-02-23T08:32:20;7.70;99.90
18948;DHT22;9607;51.600;7.558;2024-02-23T08:34:46;7.70;99.90
18948;DHT22;9607;51.600;7.558;2024-02-23T08:37:13;7.70;99.90
18948;DHT22;9607;51.600;7.558;2024-02-23T08:39:42;7.70;99.90
18948;DHT22;9607;51.600;7.558;2024-02-23T08:42:08;7.60;99.90
18948;DHT22;9607;51.600;7.558;2024-02-23T08:44:35;7.60;99.90
18948;DHT22;9607;51.600;7.558;2024-02-23T08:47:04;7.50;99.90
18948;DHT22;9607;51.600;7.558;2024-02-23T08:49:31;7.50;99.90
18948;DHT22;9607;51.600;7.558;2024-02-23T08:51:58;7.50;99.90
18948;DHT22;9607;51.600;7.558;2024-02-23T08:54:25;7.60;99.90
18948;DHT22;9607;51.600;7.558;2024-02-23T08:56:53;7.50;99.90
18948;DHT22;9607;51.600;7.558;2024-02-23T08:59:20;7.70;99.90
18948;DHT22;9607;51.600;7.558;2024-02-23T09:01:47;7.70;99.90
18948;DHT22;9607;51.600;7.558;2024-02-23T09:04:13;7.80;99.90
18948;DHT22;9607;51.600;7.558;2024-02-23T09:06:40;7.90;99.90
18948;DHT22;9607;51.600;7.558;2024-02-23T09:09:07;7.90;99.90
18948;DHT22;9607;51.600;7.558;2024-02-23T09:11:36;8.00;99.90
18948;DHT22;9607;51.600;7.558;2024-02-23T09:14:04;8.00;99.90
18948;DHT22;9607;51.600;7.558;2024-02-23T09:16:31;8.10;99.90
18948;DHT22;9607;51.600;7.558;2024-02-23T09:18:58;8.00;99.90
18948;DHT22;9607;51.600;7.558;2024-02-23T09:21:25;8.10;99.90
18948;DHT22;9607;51.600;7.558;2024-02-23T09:23:51;8.20;99.90
18948;DHT22;9607;51.600;7.558;2024-02-23T09:26:18;8.40;99.90
18948;DHT22;9607;51.600;7.558;2024-02-23T09:28:45;8.50;99.90
18948;DHT22;9607;51.600;7.558;2024-02-23T09:31:13;8.50;99.90
18948;DHT22;9607;51.600;7.558;2024-02-23T09:33:40;8.60;99.90
18948;DHT22;9607;51.600;7.558;2024-02-23T09:36:09;8.50;99.90
18948;DHT22;9607;51.600;7.558;2024-02-23T09:38:36;8.50;99.90
18948;DHT22;9607;51.600;7.558;2024-02-23T09:41:03;8.50;99.90
18948;DHT22;9607;51.600;7.558;2024-02-23T09:43:32;8.50;99.90
18948;DHT22;9607;51.600;7.558;2024-02-23T09:45:59;8.50;99.90
18948;DHT22;9607;51.600;7.558;2024-02-23T09:48:28;8.50;99.90
18948;DHT22;9607;51.600;7.558;2024-02-23T09:50:59;8.60;99.90
18948;DHT22;9607;51.600;7.558;2024-02-23T09:53:26;8.60;99.90
18948;DHT22;9607;51.600;7.558;2024-02-23T09:55:53;8.60;99.90
18948;DHT22;9607;51.600;7.558;2024-02-23T09:58:21;8.60;99.90
18948;DHT22;9607;51.600;7.558;2024-02-23T10:00:50;8.60;99.90
18948;DHT22;9607;51.600;7.558;2024-02-23T10:03:17;8.70;99.90
18948;DHT22;9607;51.600;7.558;2024-02-23T10:05:45;8.90;99.90
18948;DHT22;9607;51.600;7.558;2024-02-23T10:08:13;8.90;99.90
18948;DHT22;9607;51.600;7.558;2024-02-23T10:10:39;8.80;99.90
18948;DHT22;9607;51.600;7.558;2024-02-23T10:13:07;8.80;99.90
18948;DHT22;9607;51.600;7.558;2024-02-23T10:15:34;8.80;99.90
18948;DHT22;9607;51.600;7.558;2024-02-23T10:18:00;8.90;99.90
18948;DHT22;9607;51.600;7.558;2024-02-23T10:20:26;9.00;99.90
18948;DHT22;9607;51.600;7.558;2024-02-23T10:22:55;9.10;99.90
18948;DHT22;9607;51.600;7.558;2024-02-23T10:25:23;9.10;99.90
18948;DHT22;9607;51.600;7.558;2024-02-23T10:27:49;9.20;99.90
18948;DHT22;9607;51.600;7.558;2024-02-23T10:30:17;9.20;99.90
18948;DHT22;9607;51.600;7.558;2024-02-23T10:32:47;9.30;99.90
18948;DHT22;9607;51.600;7.558;2024-02-23T10:35:16;9.30;99.90
18948;DHT22;9607;51.600;7.558;2024-02-23T10:37:43;9.40;99.90
18948;DHT22;9607;51.600;7.558;2024-02-23T10:40:12;9.50;99.90
18948;DHT22;9607;51.600;7.558;2024-02-23T10:42:41;9.60;99.90
18948;DHT22;9607;51.600;7.558;2024-02-23T10:45:14;9.60;99.90
18948;DHT22;9607;51.600;7.558;2024-02-23T10:47:42;9.70;99.90
18948;DHT22;9607;51.600;7.558;2024-02-23T10:50:09;9.80;99.90
18948;DHT22;9607;51.600;7.558;2024-02-23T10:52:40;9.80;99.90
18948;DHT22;9607;51.600;7.558;2024-02-23T10:55:08;9.70;99.90
18948;DHT22;9607;51.600;7.558;2024-02-23T10:57:37;9.60;99.90
18948;DHT22;9607;51.600;7.558;2024-02-23T11:00:06;9.50;99.90
18948;DHT22;9607;51.600;7.558;2024-02-23T11:02:38;9.50;99.90
18948;DHT22;9607;51.600;7.558;2024-02-23T11:05:07;9.50;99.90
18948;DHT22;9607;51.600;7.558;2024-02-23T11:07:38;9.60;99.90
18948;DHT22;9607;51.600;7.558;2024-02-23T11:10:06;9.70;99.90
18948;DHT22;9607;51.600;7.558;2024-02-23T11:12:36;9.80;99.90
18948;DHT22;9607;51.600;7.558;2024-02-23T11:15:04;9.90;99.90
18948;DHT22;9607;51.600;7.558;2024-02-23T11:17:32;10.10;99.90
18948;DHT22;9607;51.600;7.558;2024-02-23T11:20:02;10.10;99.90
18948;DHT22;9607;51.600;7.558;2024-02-23T11:22:31;10.10;99.90
18948;DHT22;9607;51.600;7.558;2024-02-23T11:25:00;10.20;99.90
18948;DHT22;9607;51.600;7.558;2024-02-23T11:27:31;10.30;99.90
18948;DHT22;9607;51.600;7.558;2024-02-23T11:30:05;10.30;99.90
18948;DHT22;9607;51.600;7.558;2024-02-23T11:32:38;10.50;99.90
18948;DHT22;9607;51.600;7.558;2024-02-23T11:35:08;10.70;99.90
18948;DHT22;9607;51.600;7.558;2024-02-23T11:37:47;10.90;99.90
18948;DHT22;9607;51.600;7.558;2024-02-23T11:40:14;11.00;99.90
18948;DHT22;9607;51.600;7.558;2024-02-23T11:42:41;11.10;99.90
18948;DHT22;9607;51.600;7.558;2024-02-23T11:45:10;11.40;99.90
18948;DHT22;9607;51.600;7.558;2024-02-23T11:47:37;11.60;99.90
18948;DHT22;9607;51.600;7.558;2024-02-23T11:50:06;11.70;99.90
18948;DHT22;9607;51.600;7.558;2024-02-23T11:52:33;11.70;99.90
18948;DHT22;9607;51.600;7.558;2024-02-23T11:55:01;11.50;99.90
18948;DHT22;9607;51.600;7.558;2024-02-23T11:57:28;11.20;99.90
18948;DHT22;9607;51.600;7.558;2024-02-23T11:59:54;11.00;99.90
18948;DHT22;9607;51.600;7.558;2024-02-23T12:02:23;10.90;99.90
18948;DHT22;9607;51.600;7.558;2024-02-23T12:04:50;10.70;99.90
18948;DHT22;9607;51.600;7.558;2024-02-23T12:07:18;10.70;99.90
18948;DHT22;9607;51.600;7.558;2024-02-23T12:09:46;10.60;99.90
18948;DHT22;9607;51.600;7.558;2024-02-23T12:12:13;10.70;99.90
18948;DHT22;9607;51.600;7.558;2024-02-23T12:14:40;10.60;99.90
18948;DHT22;9607;51.600;7.558;2024-02-23T12:17:08;10.60;99.90
18948;DHT22;9607;51.600;7.558;2024-02-23T12:19:39;10.50;99.90
18948;DHT22;9607;51.600;7.558;2024-02-23T12:22:06;10.50;99.90
18948;DHT22;9607;51.600;7.558;2024-02-23T12:24:34;10.50;99.90
18948;DHT22;9607;51.600;7.558;2024-02-23T12:27:01;10.40;99.90
18948;DHT22;9607;51.600;7.558;2024-02-23T12:29:28;10.30;99.90
18948;DHT22;9607;51.600;7.558;2024-02-23T12:32:03;10.30;99.90
18948;DHT22;9607;51.600;7.558;2024-02-23T12:34:30;10.20;99.90
18948;DHT22;9607;51.600;7.558;2024-02-23T12:36:58;10.10;99.90
18948;DHT22;9607;51.600;7.558;2024-02-23T12:39:25;10.10;99.90
18948;DHT22;9607;51.600;7.558;2024-02-23T12:41:59;10.10;99.90
18948;DHT22;9607;51.600;7.558;2024-02-23T12:44:26;10.10;99.90
18948;DHT22;9607;51.600;7.558;2024-02-23T12:46:53;10.20;99.90
18948;DHT22;9607;51.600;7.558;2024-02-23T12:49:20;10.20;99.90
18948;DHT22;9607;51.600;7.558;2024-02-23T12:51:46;10.30;99.90
18948;DHT22;9607;51.600;7.558;2024-02-23T12:54:15;10.30;99.90
18948;DHT22;9607;51.600;7.558;2024-02-23T12:56:41;10.30;99.90
18948;DHT22;9607;51.600;7.558;2024-02-23T12:59:09;10.30;99.90
18948;DHT22;9607;51.600;7.558;2024-02-23T13:01:36;10.30;99.90
18948;DHT22;9607;51.600;7.558;2024-02-23T13:04:05;10.20;99.90
18948;DHT22;9607;51.600;7.558;2024-02-23T13:06:36;10.20;99.90
18948;DHT22;9607;51.600;7.558;2024-02-23T13:09:03;10.20;99.90
18948;DHT22;9607;51.600;7.558;2024-02-23T13:11:32;10.20;99.90
18948;DHT22;9607;51.600;7.558;2024-02-23T13:13:59;10.30;99.90
18948;DHT22;9607;51.600;7.558;2024-02-23T13:16:25;10.40;99.90
18948;DHT22;9607;51.600;7.558;2024-02-23T13:18:52;10.60;99.90
18948;DHT22;9607;51.600;7.558;2024-02-23T13:21:19;10.70;99.90
18948;DHT22;9607;51.600;7.558;2024-02-23T13:23:46;10.70;99.90
18948;DHT22;9607;51.600;7.558;2024-02-23T13:26:12;10.90;99.90
18948;DHT22;9607;51.600;7.558;2024-02-23T13:28:42;11.10;99.90
18948;DHT22;9607;51.600;7.558;2024-02-23T13:31:09;11.20;99.90
18948;DHT22;9607;51.600;7.558;2024-02-23T13:33:37;11.40;99.90
18948;DHT22;9607;51.600;7.558;2024-02-23T13:36:04;11.60;99.90
18948;DHT22;9607;51.600;7.558;2024-02-23T13:38:31;11.60;99.90
18948;DHT22;9607;51.600;7.558;2024-02-23T13:41:03;11.60;99.90
18948;DHT22;9607;51.600;7.558;2024-02-23T13:43:30;11.60;99.90
18948;DHT22;9607;51.600;7.558;2024-02-23T13:46:00;11.50;99.90
18948;DHT22;9607;51.600;7.558;2024-02-23T13:48:29;11.40;99.90
18948;DHT22;9607;51.600;7.558;2024-02-23T13:50:56;11.20;99.90
18948;DHT22;9607;51.600;7.558;2024-02-23T13:53:23;11.10;99.90
18948;DHT22;9607;51.600;7.558;2024-02-23T13:55:50;11.00;99.90
18948;DHT22;9607;51.600;7.558;2024-02-23T13:58:17;11.10;99.90
18948;DHT22;9607;51.600;7.558;2024-02-23T14:00:44;11.10;99.90
18948;DHT22;9607;51.600;7.558;2024-02-23T14:03:16;11.10;99.90
18948;DHT22;9607;51.600;7.558;2024-02-23T14:05:43;11.10;99.90
18948;DHT22;9607;51.600;7.558;2024-02-23T14:08:11;11.10;99.90
18948;DHT22;9607;51.600;7.558;2024-02-23T14:10:38;11.40;99.90
18948;DHT22;9607;51.600;7.558;2024-02-23T14:13:05;11.80;99.90
18948;DHT22;9607;51.600;7.558;2024-02-23T14:15:32;11.90;99.90
18948;DHT22;9607;51.600;7.558;2024-02-23T14:17:59;11.90;99.90
18948;DHT22;9607;51.600;7.558;2024-02-23T14:20:27;11.70;99.90
18948;DHT22;9607;51.600;7.558;2024-02-23T14:22:55;11.40;99.90
18948;DHT22;9607;51.600;7.558;2024-02-23T14:25:21;11.20;99.90
18948;DHT22;9607;51.600;7.558;2024-02-23T14:27:48;11.00;99.90
18948;DHT22;9607;51.600;7.558;2024-02-23T14:30:15;10.80;99.90
18948;DHT22;9607;51.600;7.558;2024-02-23T14:32:42;10.70;99.90
18948;DHT22;9607;51.600;7.558;2024-02-23T14:35:09;10.70;99.90
18948;DHT22;9607;51.600;7.558;2024-02-23T14:37:37;10.70;99.90
18948;DHT22;9607;51.600;7.558;2024-02-23T14:40:05;10.60;99.90
18948;DHT22;9607;51.600;7.558;2024-02-23T14:42:33;10.60;99.90
18948;DHT22;9607;51.600;7.558;2024-02-23T14:45:00;10.70;99.90
18948;DHT22;9607;51.600;7.558;2024-02-23T14:47:26;10.70;99.90
18948;DHT22;9607;51.600;7.558;2024-02-23T14:49:53;10.70;99.90
18948;DHT22;9607;51.600;7.558;2024-02-23T14:52:20;10.60;99.90
18948;DHT22;9607;51.600;7.558;2024-02-23T14:54:48;10.60;99.90
18948;DHT22;9607;51.600;7.558;2024-02-23T14:57:15;10.60;99.90
18948;DHT22;9607;51.600;7.558;2024-02-23T14:59:42;10.50;99.90
18948;DHT22;9607;51.600;7.558;2024-02-23T15:02:18;10.40;99.90
18948;DHT22;9607;51.600;7.558;2024-02-23T15:04:45;10.30;99.90
18948;DHT22;9607;51.600;7.558;2024-02-23T15:07:12;10.30;99.90
18948;DHT22;9607;51.600;7.558;2024-02-23T15:09:39;10.30;99.90
18948;DHT22;9607;51.600;7.558;2024-02-23T15:12:07;10.20;99.90
18948;DHT22;9607;51.600;7.558;2024-02-23T15:14:34;9.90;99.90
18948;DHT22;9607;51.600;7.558;2024-02-23T15:17:01;9.10;99.90
18948;DHT22;9607;51.600;7.558;2024-02-23T15:19:27;8.40;99.90
18948;DHT22;9607;51.600;7.558;2024-02-23T15:21:54;8.00;99.90
18948;DHT22;9607;51.600;7.558;2024-02-23T15:24:22;7.70;99.90
18948;DHT22;9607;51.600;7.558;2024-02-23T15:26:50;7.50;99.90
18948;DHT22;9607;51.600;7.558;2024-02-23T15:29:19;7.40;99.90
18948;DHT22;9607;51.600;7.558;2024-02-23T15:31:45;7.30;99.90
18948;DHT22;9607;51.600;7.558;2024-02-23T15:34:12;7.30;99.90
18948;DHT22;9607;51.600;7.558;2024-02-23T15:36:39;7.30;99.90
18948;DHT22;9607;51.600;7.558;2024-02-23T15:39:06;7.30;99.90
18948;DHT22;9607;51.600;7.558;2024-02-23T15:41:34;7.30;99.90
18948;DHT22;9607;51.600;7.558;2024-02-23T15:44:01;7.30;99.90
18948;DHT22;9607;51.600;7.558;2024-02-23T15:46:29;7.40;99.90
18948;DHT22;9607;51.600;7.558;2024-02-23T15:48:57;7.40;99.90
18948;DHT22;9607;51.600;7.558;2024-02-23T15:51:23;7.50;99.90
18948;DHT22;9607;51.600;7.558;2024-02-23T15:53:50;7.50;99.90
18948;DHT22;9607;51.600;7.558;2024-02-23T15:56:17;7.60;99.90
18948;DHT22;9607;51.600;7.558;2024-02-23T15:58:44;7.60;99.90